Authier-Nord, Canada
Current Conditions -  °F | °C
As of 7:00 PM on Thursday 27 Nov 2014 (Local Time) from CYUY Reporting Station
Light Snow Light Snow  
Wind Chill: -3°   Ceiling: 22000
Heat Index:   Visibility: 5mi
Dew Point:   Wind: 7mph
Humidity: 85%   Direction: 10°N
Pressure: 30.14"   Gusts: NA
Location:  48.83°N, 78.87°W
Report Text: CYUY 280000Z 01006KT 5SM -SN SCT060 BKN220 M13/M15 A3014 RMK SC4CI3 /S01/ SLP233
Loading
Personal Weather Stations






























Interactive Weather Map New forecast layout! Learn more

10-Day Weather Forecast

Advertisements
Track Severe Weather on mobile